Zeus — V2OR — position and weather

sailwx.info

Track history (hours):
 
Tides and Currents Weather Stations Pressure Air Temp Water Temp Dewpoint Dewpoint Depression Visibility Wind Speed Wind Dir Waves Ship Positions

Zeus

Last reported at 2015-Jan-28 21:21 UTC. Time now 2015-Jan-30 17:04 UTC.
Position N 58°46' E 005°20'.

Length 90 m; draft 4.8 m.

Type: Cargo ship. MMSI: 304011025.

Date/timePositionNaut miles runAvg speedWind from/ knotsBaromVisibWave heightAir tempDewpointWater temp
2015-Jan-28 21:21N 58°46' E 005°20'5 6.8
2015-Jan-28 20:34N 58°50' E 005°26'7 6.8
2015-Jan-28 19:33N 58°56' E 005°32'6 6.2
2015-Jan-28 18:33N 59°02' E 005°38'7 7.0
2015-Jan-28 17:33N 58°56' E 005°46'1 0.9
2015-Jan-28 16:32N 58°55' E 005°44'0 0.0
2015-Jan-28 15:32N 58°55' E 005°44'0 0.0
2015-Jan-28 14:32N 58°55' E 005°44'0 0.0
2015-Jan-28 13:32N 58°55' E 005°44'0 0.0
2015-Jan-28 12:32N 58°55' E 005°44'0 0.0
2015-Jan-28 11:32N 58°55' E 005°44'0 0.0
2015-Jan-28 10:32N 58°55' E 005°44'0 0.0
2015-Jan-28 09:32N 58°55' E 005°44'0 0.0
2015-Jan-28 08:32N 58°55' E 005°44'0 0.0
2015-Jan-28 07:32N 58°55' E 005°44'0 0.0
2015-Jan-28 06:29N 58°55' E 005°44'0 0.0
2015-Jan-28 05:32N 58°55' E 005°44'0 0.0
2015-Jan-28 04:32N 58°55' E 005°44'0 0.0
2015-Jan-28 03:32N 58°55' E 005°44'0 0.0
2015-Jan-28 02:32N 58°55' E 005°44'0 0.0
2015-Jan-28 01:32N 58°55' E 005°44'0 0.0
2015-Jan-28 00:32N 58°55' E 005°44'0 0.0
2015-Jan-27 23:32N 58°55' E 005°44'0 0.0
2015-Jan-27 22:29N 58°55' E 005°44'0 0.0
2015-Jan-27 21:32N 58°55' E 005°44'0 0.0
2015-Jan-27 20:32N 58°55' E 005°44'0 0.0
2015-Jan-27 19:32N 58°55' E 005°44'0 0.0
2015-Jan-27 18:29N 58°55' E 005°44'0 0.0
2015-Jan-27 17:29N 58°55' E 005°44'0 0.0
2015-Jan-27 16:32N 58°55' E 005°44'0 0.0
2015-Jan-27 15:32N 58°55' E 005°44'0 0.0
2015-Jan-27 14:32N 58°55' E 005°44'0 0.0
2015-Jan-27 13:32N 58°55' E 005°44'0 0.0
2015-Jan-27 12:32N 58°55' E 005°44'0 0.0
2015-Jan-27 11:32N 58°55' E 005°44'0 0.0
2015-Jan-27 10:32N 58°55' E 005°44'0 0.0
2015-Jan-27 09:29N 58°55' E 005°44'0 0.0
2015-Jan-27 08:32N 58°55' E 005°44'0 0.0
2015-Jan-27 07:32N 58°55' E 005°44'0 0.0
2015-Jan-27 06:32N 58°55' E 005°44'1 0.9
2015-Jan-27 05:33N 58°56' E 005°46'7 6.7
2015-Jan-27 04:33N 59°01' E 005°38'1 0.6
2015-Jan-27 03:31N 59°01' E 005°37'0 0.0
2015-Jan-27 02:31N 59°01' E 005°37'0 0.0
2015-Jan-27 01:28N 59°01' E 005°37'0 0.0
2015-Jan-27 00:31N 59°01' E 005°37'0 0.0
2015-Jan-26 23:31N 59°01' E 005°37'0 0.0
2015-Jan-26 22:31N 59°01' E 005°37'0 0.0
2015-Jan-26 21:31N 59°01' E 005°37'0 0.0
2015-Jan-26 20:31N 59°01' E 005°37'0 0.0
2015-Jan-26 19:31N 59°01' E 005°37'0 0.0
2015-Jan-26 18:28N 59°01' E 005°37'0 0.0
2015-Jan-26 17:31N 59°01' E 005°37'0 0.0
2015-Jan-26 16:31N 59°01' E 005°37'0 0.0
2015-Jan-26 15:31N 59°01' E 005°37'0 0.0
2015-Jan-26 14:31N 59°01' E 005°37'0 0.0
2015-Jan-26 13:31N 59°01' E 005°37'0 0.0
2015-Jan-26 12:31N 59°01' E 005°37'0 0.0
2015-Jan-26 11:31N 59°01' E 005°37'0 0.0
2015-Jan-26 10:31N 59°01' E 005°37'2 2.4
2015-Jan-26 09:33N 59°01' E 005°33'10 9.9
2015-Jan-26 08:33N 58°51' E 005°30'5 4.5
2015-Jan-26 07:33N 58°48' E 005°24'19 9.5
2015-Jan-26 05:32N 58°29' E 005°35'9 8.8
2015-Jan-26 04:33N 58°23' E 005°45'9 8.6
2015-Jan-26 03:33N 58°19' E 005°60'8 8.0
2015-Jan-26 02:33N 58°18' E 006°15'2 0.1
2015-Jan-24 10:33N 58°18' E 006°19'10 9.3
2015-Jan-24 09:32N 58°21' E 006°02'9 9.2
2015-Jan-24 08:33N 58°25' E 005°47'28 8.1
2015-Jan-24 05:04N 58°48' E 005°14'3 6.5
2015-Jan-24 04:33N 58°51' E 005°15'7 7.2
2015-Jan-24 03:34N 58°58' E 005°18'9 7.8
2015-Jan-24 02:28N 59°07' E 005°19'24 0.5
2015-Jan-22 02:22N 59°30' E 005°13'18 9.1
2015-Jan-22 00:21N 59°12' E 005°21'7 9.2
2015-Jan-21 23:33N 59°05' E 005°21'7 9.4
2015-Jan-21 22:50N 58°58' E 005°20'1 9.4
2015-Jan-21 22:46N 58°58' E 005°20'2 9.5
2015-Jan-21 22:34N 58°56' E 005°20'9 9.3
2015-Jan-21 21:32N 58°46' E 005°21'14 9.6
2015-Jan-21 20:06N 58°33' E 005°30'5 9.2
2015-Jan-21 19:33N 58°29' E 005°34'10 9.6
2015-Jan-21 18:33N 58°22' E 005°48'10 9.6
2015-Jan-21 17:33N 58°15' E 006°01'10 9.6
2015-Jan-21 16:34N 58°09' E 006°14'10 9.3
2015-Jan-21 15:32N 58°03' E 006°28'141 9.4
2015-Jan-21 00:30N 57°45' E 010°51'1010.2
2015-Jan-20 23:33N 57°39' E 011°05'1110.6
2015-Jan-20 22:33N 57°32' E 011°19'1010.3
2015-Jan-20 21:33N 57°24' E 011°30'1010.3
2015-Jan-20 20:34N 57°14' E 011°38'1010.0
2015-Jan-20 19:33N 57°05' E 011°45'10 9.8
2015-Jan-20 18:33N 56°56' E 011°53'10 9.8
2015-Jan-20 17:33N 56°47' E 012°00'10 9.7
2015-Jan-20 16:33N 56°38' E 012°08'10 9.7
2015-Jan-20 15:33N 56°29' E 012°15'1111.4
2015-Jan-20 14:33N 56°19' E 012°23'1211.9
2015-Jan-20 13:33N 56°08' E 012°32'1212.2
2015-Jan-20 12:33N 55°58' E 012°43'1111.0
2015-Jan-20 11:33N 55°47' E 012°42'1111.3
2015-Jan-20 10:33N 55°35' E 012°42'1110.7
2015-Jan-20 09:33N 55°25' E 012°42'8 8.4
2015-Jan-20 08:34N 55°17' E 012°48'9 9.4
2015-Jan-20 07:33N 55°11' E 013°00'11 9.5
2015-Jan-20 06:27N 55°03' E 013°13'13 9.8
2015-Jan-20 05:05N 54°52' E 013°25'510.3
2015-Jan-20 04:33N 54°47' E 013°29'1110.7
2015-Jan-20 03:33N 54°38' E 013°39'1010.4
2015-Jan-20 02:33N 54°29' E 013°48'1010.0
2015-Jan-20 01:32N 54°20' E 013°56'1010.0
2015-Jan-20 00:34N 54°11' E 014°04'1010.0
2015-Jan-19 23:33N 54°03' E 014°13'8 8.3
2015-Jan-19 22:33N 53°55' E 014°16'8 7.8
2015-Jan-19 21:33N 53°48' E 014°22'10 9.8
2015-Jan-19 20:33N 53°40' E 014°32'9 9.3
2015-Jan-19 19:33N 53°31' E 014°38'7 6.9
2015-Jan-19 18:33N 53°24' E 014°36'0 0.1
2015-Jan-19 17:33N 53°24' E 014°36'0 0.0
2015-Jan-19 16:33N 53°24' E 014°36'0 0.0
2015-Jan-19 15:33N 53°24' E 014°36'0 0.0
2015-Jan-19 14:33N 53°24' E 014°36'0 0.0
2015-Jan-19 13:33N 53°24' E 014°36'0 0.0
2015-Jan-19 12:33N 53°24' E 014°36'0 0.0
2015-Jan-19 11:33N 53°24' E 014°36'0 0.0
2015-Jan-19 10:33N 53°24' E 014°36'0 0.0
2015-Jan-19 09:33N 53°24' E 014°36'0 0.0
2015-Jan-19 08:33N 53°24' E 014°36'2 2.4
2015-Jan-19 07:33N 53°27' E 014°36'8 8.4
2015-Jan-19 06:34N 53°35' E 014°36'9 9.2
2015-Jan-19 05:33N 53°43' E 014°27'9 9.5
2015-Jan-19 04:33N 53°51' E 014°17'8 7.6
2015-Jan-19 03:33N 53°58' E 014°16'9 9.1
2015-Jan-19 02:33N 54°07' E 014°11'9 9.2
2015-Jan-19 01:33N 54°15' E 014°03'9 9.4
2015-Jan-19 00:33N 54°23' E 013°54'10 9.6
2015-Jan-18 23:33N 54°31' E 013°46'9 9.4
2015-Jan-18 22:33N 54°39' E 013°38'9 9.2
2015-Jan-18 21:33N 54°47' E 013°30'  
Track history (hours):
 
Tides and Currents Weather Stations Pressure Air Temp Water Temp Dewpoint Dewpoint Depression Visibility Wind Speed Wind Dir Waves Ship Positions

Zeus

Last reported at 2015-Jan-28 21:21 UTC. Time now 2015-Jan-30 17:04 UTC.
Position N 58°46' E 005°20'.

Length 90 m; draft 4.8 m.

Type: Cargo ship. MMSI: 304011025.

Date/timePositionNaut miles runAvg speedWind from/ knotsBaromVisibWave heightAir tempDewpointWater temp
2015-Jan-28 21:21N 58°46' E 005°20'5 6.8
2015-Jan-28 20:34N 58°50' E 005°26'7 6.8
2015-Jan-28 19:33N 58°56' E 005°32'6 6.2
2015-Jan-28 18:33N 59°02' E 005°38'7 7.0
2015-Jan-28 17:33N 58°56' E 005°46'1 0.9
2015-Jan-28 16:32N 58°55' E 005°44'0 0.0
2015-Jan-28 15:32N 58°55' E 005°44'0 0.0
2015-Jan-28 14:32N 58°55' E 005°44'0 0.0
2015-Jan-28 13:32N 58°55' E 005°44'0 0.0
2015-Jan-28 12:32N 58°55' E 005°44'0 0.0
2015-Jan-28 11:32N 58°55' E 005°44'0 0.0
2015-Jan-28 10:32N 58°55' E 005°44'0 0.0
2015-Jan-28 09:32N 58°55' E 005°44'0 0.0
2015-Jan-28 08:32N 58°55' E 005°44'0 0.0
2015-Jan-28 07:32N 58°55' E 005°44'0 0.0
2015-Jan-28 06:29N 58°55' E 005°44'0 0.0
2015-Jan-28 05:32N 58°55' E 005°44'0 0.0
2015-Jan-28 04:32N 58°55' E 005°44'0 0.0
2015-Jan-28 03:32N 58°55' E 005°44'0 0.0
2015-Jan-28 02:32N 58°55' E 005°44'0 0.0
2015-Jan-28 01:32N 58°55' E 005°44'0 0.0
2015-Jan-28 00:32N 58°55' E 005°44'0 0.0
2015-Jan-27 23:32N 58°55' E 005°44'0 0.0
2015-Jan-27 22:29N 58°55' E 005°44'0 0.0
2015-Jan-27 21:32N 58°55' E 005°44'0 0.0
2015-Jan-27 20:32N 58°55' E 005°44'0 0.0
2015-Jan-27 19:32N 58°55' E 005°44'0 0.0
2015-Jan-27 18:29N 58°55' E 005°44'0 0.0
2015-Jan-27 17:29N 58°55' E 005°44'0 0.0
2015-Jan-27 16:32N 58°55' E 005°44'0 0.0
2015-Jan-27 15:32N 58°55' E 005°44'0 0.0
2015-Jan-27 14:32N 58°55' E 005°44'0 0.0
2015-Jan-27 13:32N 58°55' E 005°44'0 0.0
2015-Jan-27 12:32N 58°55' E 005°44'0 0.0
2015-Jan-27 11:32N 58°55' E 005°44'0 0.0
2015-Jan-27 10:32N 58°55' E 005°44'0 0.0
2015-Jan-27 09:29N 58°55' E 005°44'0 0.0
2015-Jan-27 08:32N 58°55' E 005°44'0 0.0
2015-Jan-27 07:32N 58°55' E 005°44'0 0.0
2015-Jan-27 06:32N 58°55' E 005°44'1 0.9
2015-Jan-27 05:33N 58°56' E 005°46'7 6.7
2015-Jan-27 04:33N 59°01' E 005°38'1 0.6
2015-Jan-27 03:31N 59°01' E 005°37'0 0.0
2015-Jan-27 02:31N 59°01' E 005°37'0 0.0
2015-Jan-27 01:28N 59°01' E 005°37'0 0.0
2015-Jan-27 00:31N 59°01' E 005°37'0 0.0
2015-Jan-26 23:31N 59°01' E 005°37'0 0.0
2015-Jan-26 22:31N 59°01' E 005°37'0 0.0
2015-Jan-26 21:31N 59°01' E 005°37'0 0.0
2015-Jan-26 20:31N 59°01' E 005°37'0 0.0
2015-Jan-26 19:31N 59°01' E 005°37'0 0.0
2015-Jan-26 18:28N 59°01' E 005°37'0 0.0
2015-Jan-26 17:31N 59°01' E 005°37'0 0.0
2015-Jan-26 16:31N 59°01' E 005°37'0 0.0
2015-Jan-26 15:31N 59°01' E 005°37'0 0.0
2015-Jan-26 14:31N 59°01' E 005°37'0 0.0
2015-Jan-26 13:31N 59°01' E 005°37'0 0.0
2015-Jan-26 12:31N 59°01' E 005°37'0 0.0
2015-Jan-26 11:31N 59°01' E 005°37'0 0.0
2015-Jan-26 10:31N 59°01' E 005°37'2 2.4
2015-Jan-26 09:33N 59°01' E 005°33'10 9.9
2015-Jan-26 08:33N 58°51' E 005°30'5 4.5
2015-Jan-26 07:33N 58°48' E 005°24'19 9.5
2015-Jan-26 05:32N 58°29' E 005°35'9 8.8
2015-Jan-26 04:33N 58°23' E 005°45'9 8.6
2015-Jan-26 03:33N 58°19' E 005°60'8 8.0
2015-Jan-26 02:33N 58°18' E 006°15'2 0.1
2015-Jan-24 10:33N 58°18' E 006°19'10 9.3
2015-Jan-24 09:32N 58°21' E 006°02'9 9.2
2015-Jan-24 08:33N 58°25' E 005°47'28 8.1
2015-Jan-24 05:04N 58°48' E 005°14'3 6.5
2015-Jan-24 04:33N 58°51' E 005°15'7 7.2
2015-Jan-24 03:34N 58°58' E 005°18'9 7.8
2015-Jan-24 02:28N 59°07' E 005°19'24 0.5
2015-Jan-22 02:22N 59°30' E 005°13'18 9.1
2015-Jan-22 00:21N 59°12' E 005°21'7 9.2
2015-Jan-21 23:33N 59°05' E 005°21'7 9.4
2015-Jan-21 22:50N 58°58' E 005°20'1 9.4
2015-Jan-21 22:46N 58°58' E 005°20'2 9.5
2015-Jan-21 22:34N 58°56' E 005°20'9 9.3
2015-Jan-21 21:32N 58°46' E 005°21'14 9.6
2015-Jan-21 20:06N 58°33' E 005°30'5 9.2
2015-Jan-21 19:33N 58°29' E 005°34'10 9.6
2015-Jan-21 18:33N 58°22' E 005°48'10 9.6
2015-Jan-21 17:33N 58°15' E 006°01'10 9.6
2015-Jan-21 16:34N 58°09' E 006°14'10 9.3
2015-Jan-21 15:32N 58°03' E 006°28'141 9.4
2015-Jan-21 00:30N 57°45' E 010°51'1010.2
2015-Jan-20 23:33N 57°39' E 011°05'1110.6
2015-Jan-20 22:33N 57°32' E 011°19'1010.3
2015-Jan-20 21:33N 57°24' E 011°30'1010.3
2015-Jan-20 20:34N 57°14' E 011°38'1010.0
2015-Jan-20 19:33N 57°05' E 011°45'10 9.8
2015-Jan-20 18:33N 56°56' E 011°53'10 9.8
2015-Jan-20 17:33N 56°47' E 012°00'10 9.7
2015-Jan-20 16:33N 56°38' E 012°08'10 9.7
2015-Jan-20 15:33N 56°29' E 012°15'1111.4
2015-Jan-20 14:33N 56°19' E 012°23'1211.9
2015-Jan-20 13:33N 56°08' E 012°32'1212.2
2015-Jan-20 12:33N 55°58' E 012°43'1111.0
2015-Jan-20 11:33N 55°47' E 012°42'1111.3
2015-Jan-20 10:33N 55°35' E 012°42'1110.7
2015-Jan-20 09:33N 55°25' E 012°42'8 8.4
2015-Jan-20 08:34N 55°17' E 012°48'9 9.4
2015-Jan-20 07:33N 55°11' E 013°00'11 9.5
2015-Jan-20 06:27N 55°03' E 013°13'13 9.8
2015-Jan-20 05:05N 54°52' E 013°25'510.3
2015-Jan-20 04:33N 54°47' E 013°29'1110.7
2015-Jan-20 03:33N 54°38' E 013°39'1010.4
2015-Jan-20 02:33N 54°29' E 013°48'1010.0
2015-Jan-20 01:32N 54°20' E 013°56'1010.0
2015-Jan-20 00:34N 54°11' E 014°04'1010.0
2015-Jan-19 23:33N 54°03' E 014°13'8 8.3
2015-Jan-19 22:33N 53°55' E 014°16'8 7.8
2015-Jan-19 21:33N 53°48' E 014°22'10 9.8
2015-Jan-19 20:33N 53°40' E 014°32'9 9.3
2015-Jan-19 19:33N 53°31' E 014°38'7 6.9
2015-Jan-19 18:33N 53°24' E 014°36'0 0.1
2015-Jan-19 17:33N 53°24' E 014°36'0 0.0
2015-Jan-19 16:33N 53°24' E 014°36'0 0.0
2015-Jan-19 15:33N 53°24' E 014°36'0 0.0
2015-Jan-19 14:33N 53°24' E 014°36'0 0.0
2015-Jan-19 13:33N 53°24' E 014°36'0 0.0
2015-Jan-19 12:33N 53°24' E 014°36'0 0.0
2015-Jan-19 11:33N 53°24' E 014°36'0 0.0
2015-Jan-19 10:33N 53°24' E 014°36'0 0.0
2015-Jan-19 09:33N 53°24' E 014°36'0 0.0
2015-Jan-19 08:33N 53°24' E 014°36'2 2.4
2015-Jan-19 07:33N 53°27' E 014°36'8 8.4
2015-Jan-19 06:34N 53°35' E 014°36'9 9.2
2015-Jan-19 05:33N 53°43' E 014°27'9 9.5
2015-Jan-19 04:33N 53°51' E 014°17'8 7.6
2015-Jan-19 03:33N 53°58' E 014°16'9 9.1
2015-Jan-19 02:33N 54°07' E 014°11'9 9.2
2015-Jan-19 01:33N 54°15' E 014°03'9 9.4
2015-Jan-19 00:33N 54°23' E 013°54'10 9.6
2015-Jan-18 23:33N 54°31' E 013°46'9 9.4
2015-Jan-18 22:33N 54°39' E 013°38'9 9.2
2015-Jan-18 21:33N 54°47' E 013°30'  

Dump ship's entire track history